Michelle Sloan — WDH8832 — position and weather

sailwx.info

Track history (hours):
 
Tides and Currents Weather Stations Pressure Air Temp Water Temp Dewpoint Dewpoint Depression Visibility Wind Speed Wind Dir Waves Ship Positions

Michelle Sloan

Owner: Harley Marine Services, Inc., Seattle, WA. More information available from US FCC via Universal Licensing System and Coast Guard Vessel Documentation Center.

Last reported at 2018-Aug-16 08:29 UTC. Time now 2018-Aug-16 08:44 UTC.
Position N 47°34' W 122°21'.

Length 24 m; draft 4 m.

Type: Tug. MMSI: 367661930.

Date/timePositionNaut miles runAvg speedWind from/ knotsBaromVisibWave heightAir tempDewpointWater temp
2018-Aug-16 08:29N 47°34' W 122°21'0 0.0
2018-Aug-16 07:59N 47°34' W 122°21'0 0.0
2018-Aug-16 07:29N 47°34' W 122°21'0 0.0
2018-Aug-16 07:00N 47°34' W 122°21'3 6.0
2018-Aug-16 06:31N 47°37' W 122°22'0 0.4
2018-Aug-16 06:00N 47°37' W 122°22'1 2.7
2018-Aug-16 05:30N 47°36' W 122°21'2 2.9
2018-Aug-16 05:00N 47°35' W 122°21'0 0.6
2018-Aug-16 04:23N 47°34' W 122°21'0 0.0
2018-Aug-16 03:59N 47°34' W 122°21'0 0.0
2018-Aug-16 03:29N 47°34' W 122°21'0 0.0
2018-Aug-16 02:59N 47°34' W 122°21'0 0.0
2018-Aug-16 02:29N 47°34' W 122°21'0 0.0
2018-Aug-16 01:59N 47°34' W 122°21'0 0.0
2018-Aug-16 01:29N 47°34' W 122°21'0 0.0
2018-Aug-16 00:59N 47°34' W 122°21'0 0.0
2018-Aug-16 00:26N 47°34' W 122°21'0 0.0
2018-Aug-15 23:59N 47°34' W 122°21'0 0.0
2018-Aug-15 23:29N 47°34' W 122°21'0 0.0
2018-Aug-15 22:59N 47°34' W 122°21'0 0.0
2018-Aug-15 22:29N 47°34' W 122°21'0 0.0
2018-Aug-15 21:59N 47°34' W 122°21'0 0.0
2018-Aug-15 21:29N 47°34' W 122°21'0 0.0
2018-Aug-15 20:59N 47°34' W 122°21'0 0.0
2018-Aug-15 20:29N 47°34' W 122°21'0 0.0
2018-Aug-15 19:59N 47°34' W 122°21'0 0.0
2018-Aug-15 19:30N 47°34' W 122°21'0 0.0
2018-Aug-15 19:00N 47°34' W 122°21'0 0.0
2018-Aug-15 18:30N 47°34' W 122°21'0 0.0
2018-Aug-15 18:00N 47°34' W 122°21'0 0.0
2018-Aug-15 17:30N 47°34' W 122°21'0 0.0
2018-Aug-15 17:00N 47°34' W 122°21'0 0.0
2018-Aug-15 16:30N 47°34' W 122°21'0 0.0
2018-Aug-15 16:00N 47°34' W 122°21'0 0.0
2018-Aug-15 15:30N 47°34' W 122°21'0 0.0
2018-Aug-15 15:00N 47°34' W 122°21'0 0.0
2018-Aug-15 14:30N 47°34' W 122°21'0 0.0
2018-Aug-15 14:00N 47°34' W 122°21'0 0.0
2018-Aug-15 13:30N 47°34' W 122°21'0 0.0
2018-Aug-15 13:00N 47°34' W 122°21'0 0.0
2018-Aug-15 12:30N 47°34' W 122°21'0 0.0
2018-Aug-15 12:00N 47°34' W 122°21'0 0.0
2018-Aug-15 11:30N 47°34' W 122°21'0 0.0
2018-Aug-15 11:00N 47°34' W 122°21'0 0.0
2018-Aug-15 10:30N 47°34' W 122°21'0 0.0
2018-Aug-15 10:00N 47°34' W 122°21'0 0.0
2018-Aug-15 09:30N 47°34' W 122°21'0 0.0
2018-Aug-15 09:00N 47°34' W 122°21'0 0.0
2018-Aug-15 08:30N 47°34' W 122°21'0 0.0
2018-Aug-15 08:00N 47°34' W 122°21'0 0.0
2018-Aug-15 07:30N 47°34' W 122°21'0 0.0
2018-Aug-15 07:00N 47°34' W 122°21'0 0.0
2018-Aug-15 06:30N 47°34' W 122°21'0 0.0
2018-Aug-15 06:00N 47°34' W 122°21'0 0.0
2018-Aug-15 05:30N 47°34' W 122°21'0 0.0
2018-Aug-15 05:00N 47°34' W 122°21'0 0.0
2018-Aug-15 04:29N 47°34' W 122°21'0 0.0
2018-Aug-15 04:00N 47°34' W 122°21'0 0.0
2018-Aug-15 03:30N 47°34' W 122°21'0 0.0
2018-Aug-15 03:00N 47°34' W 122°21'0 0.0
2018-Aug-15 02:30N 47°34' W 122°21'0 0.0
2018-Aug-15 02:00N 47°34' W 122°21'0 0.0
2018-Aug-15 01:30N 47°34' W 122°21'0 0.0
2018-Aug-15 01:00N 47°34' W 122°21'0 0.0
2018-Aug-15 00:30N 47°34' W 122°21'0 0.8
2018-Aug-15 00:00N 47°35' W 122°21'1 1.7
2018-Aug-14 23:30N 47°36' W 122°21'0 0.9
2018-Aug-14 23:00N 47°35' W 122°21'0 0.8
2018-Aug-14 22:31N 47°35' W 122°21'0 0.8
2018-Aug-14 22:00N 47°34' W 122°21'0 0.0
2018-Aug-14 21:30N 47°34' W 122°21'0 0.0
2018-Aug-14 21:00N 47°34' W 122°21'0 0.0
2018-Aug-14 20:30N 47°34' W 122°21'0 0.0
2018-Aug-14 20:00N 47°34' W 122°21'0 0.0
2018-Aug-14 19:30N 47°34' W 122°21'0 0.0
2018-Aug-14 19:00N 47°34' W 122°21'0 0.0
2018-Aug-14 18:30N 47°34' W 122°21'0 0.0
2018-Aug-14 18:00N 47°34' W 122°21'0 0.0
2018-Aug-14 17:30N 47°34' W 122°21'0 0.0
2018-Aug-14 16:59N 47°34' W 122°21'0 0.0
2018-Aug-14 16:30N 47°34' W 122°21'0 0.0
2018-Aug-14 16:00N 47°34' W 122°21'0 0.0
2018-Aug-14 15:30N 47°34' W 122°21'0 0.0
2018-Aug-14 15:00N 47°34' W 122°21'0 0.0
2018-Aug-14 14:29N 47°34' W 122°21'0 0.0
2018-Aug-14 14:00N 47°34' W 122°21'0 0.0
2018-Aug-14 13:24N 47°34' W 122°21'0 0.0
2018-Aug-14 12:57N 47°34' W 122°21'0 0.0
2018-Aug-14 12:29N 47°34' W 122°21'0 0.0
2018-Aug-14 12:00N 47°34' W 122°21'0 0.0
2018-Aug-14 11:29N 47°34' W 122°21'0 0.0
2018-Aug-14 11:00N 47°34' W 122°21'0 0.0
2018-Aug-14 10:30N 47°34' W 122°21'0 0.0
2018-Aug-14 10:00N 47°34' W 122°21'0 0.0
2018-Aug-14 09:30N 47°34' W 122°21'0 0.0
2018-Aug-14 09:00N 47°34' W 122°21'0 0.0
2018-Aug-14 08:30N 47°34' W 122°21'0 0.0
2018-Aug-14 08:00N 47°34' W 122°21'0 0.0
2018-Aug-14 07:27N 47°34' W 122°21'0 0.0
2018-Aug-14 07:00N 47°34' W 122°21'0 0.0
2018-Aug-14 06:29N 47°34' W 122°21'0 0.0
2018-Aug-14 06:00N 47°34' W 122°21'0 0.0
2018-Aug-14 05:30N 47°34' W 122°21'0 0.0
2018-Aug-14 04:59N 47°34' W 122°21'0 0.0
2018-Aug-14 04:30N 47°34' W 122°21'0 0.0
2018-Aug-14 03:58N 47°34' W 122°21'0 0.0
2018-Aug-14 03:30N 47°34' W 122°21'0 0.0
2018-Aug-14 03:00N 47°34' W 122°21'1 1.0
2018-Aug-14 02:30N 47°35' W 122°21'0 0.2
2018-Aug-14 02:00N 47°35' W 122°21'0 0.1
2018-Aug-14 01:30N 47°35' W 122°21'0 0.1
2018-Aug-14 01:00N 47°35' W 122°21'0 0.3
2018-Aug-14 00:30N 47°35' W 122°21'0 0.0
2018-Aug-14 00:00N 47°35' W 122°21'0 0.1
2018-Aug-13 23:31N 47°35' W 122°21'0 0.5
2018-Aug-13 23:00N 47°35' W 122°21'0 0.4
2018-Aug-13 22:30N 47°34' W 122°21'0 0.0
2018-Aug-13 22:00N 47°34' W 122°21'0 0.0
2018-Aug-13 21:30N 47°34' W 122°21'0 0.0
2018-Aug-13 21:00N 47°34' W 122°21'0 0.0
2018-Aug-13 20:30N 47°34' W 122°21'0 0.0
2018-Aug-13 19:59N 47°34' W 122°21'0 0.0
2018-Aug-13 19:29N 47°34' W 122°21'0 0.0
2018-Aug-13 19:00N 47°34' W 122°21'0 0.0
2018-Aug-13 18:30N 47°34' W 122°21'0 0.0
2018-Aug-13 18:00N 47°34' W 122°21'0 0.0
2018-Aug-13 17:30N 47°34' W 122°21'0 0.0
2018-Aug-13 17:00N 47°34' W 122°21'0 0.0
2018-Aug-13 16:30N 47°34' W 122°21'0 0.0
2018-Aug-13 16:00N 47°34' W 122°21'0 0.0
2018-Aug-13 15:30N 47°34' W 122°21'0 0.0
2018-Aug-13 15:00N 47°34' W 122°21'0 0.0
2018-Aug-13 14:30N 47°34' W 122°21'0 0.0
2018-Aug-13 14:00N 47°34' W 122°21'0 0.0
2018-Aug-13 13:30N 47°34' W 122°21'0 0.0
2018-Aug-13 13:00N 47°34' W 122°21'0 0.0
2018-Aug-13 12:30N 47°34' W 122°21'0 0.0
2018-Aug-13 12:00N 47°34' W 122°21'0 0.5
2018-Aug-13 11:30N 47°35' W 122°21'0 0.5
2018-Aug-13 11:00N 47°35' W 122°21'2 3.5
2018-Aug-13 10:31N 47°37' W 122°22'2 3.4
2018-Aug-13 10:00N 47°35' W 122°21'0 0.5
2018-Aug-13 09:30N 47°35' W 122°21'0 0.6
2018-Aug-13 09:00N 47°34' W 122°21'0 0.0
2018-Aug-13 08:30N 47°34' W 122°21'0 0.0
2018-Aug-13 08:00N 47°34' W 122°21'0 0.0
2018-Aug-13 07:30N 47°34' W 122°21'0 0.0
2018-Aug-13 07:00N 47°34' W 122°21'0 0.0
2018-Aug-13 06:30N 47°34' W 122°21'0 0.0
2018-Aug-13 06:00N 47°34' W 122°21'0 0.0
2018-Aug-13 05:30N 47°34' W 122°21'0 0.0
2018-Aug-13 05:00N 47°34' W 122°21'0 0.0
2018-Aug-13 04:30N 47°34' W 122°21'0 0.0
2018-Aug-13 04:00N 47°34' W 122°21'0 0.0
2018-Aug-13 03:30N 47°34' W 122°21'0 0.0
2018-Aug-13 03:00N 47°34' W 122°21'0 0.0
2018-Aug-13 02:30N 47°34' W 122°21'0 0.0
2018-Aug-13 02:00N 47°34' W 122°21'0 0.0
2018-Aug-13 01:30N 47°34' W 122°21'0 0.0
2018-Aug-13 01:00N 47°34' W 122°21'0 0.0
2018-Aug-13 00:30N 47°34' W 122°21'0 0.0
2018-Aug-13 00:00N 47°34' W 122°21'0 0.0
2018-Aug-12 23:30N 47°34' W 122°21'0 0.0
2018-Aug-12 23:00N 47°34' W 122°21'0 0.0
2018-Aug-12 22:30N 47°34' W 122°21'0 0.0
2018-Aug-12 22:00N 47°34' W 122°21'0 0.0
2018-Aug-12 21:30N 47°34' W 122°21'0 0.0
2018-Aug-12 21:00N 47°34' W 122°21'0 0.0
2018-Aug-12 20:30N 47°34' W 122°21'0 0.0
2018-Aug-12 20:00N 47°34' W 122°21'0 0.0
2018-Aug-12 19:30N 47°34' W 122°21'0 0.0
2018-Aug-12 19:00N 47°34' W 122°21'0 0.0
2018-Aug-12 18:30N 47°34' W 122°21'0 0.0
2018-Aug-12 18:00N 47°34' W 122°21'0 0.0
2018-Aug-12 17:30N 47°34' W 122°21'1 2.2
2018-Aug-12 17:01N 47°35' W 122°21'4 8.1
2018-Aug-12 16:30N 47°34' W 122°26'611.3
2018-Aug-12 16:00N 47°29' W 122°30'510.8
2018-Aug-12 15:30N 47°24' W 122°32'5 9.2
2018-Aug-12 15:00N 47°19' W 122°30'4 6.5
2018-Aug-12 14:26N 47°18' W 122°25'0 0.0
2018-Aug-12 14:00N 47°18' W 122°25'0 0.1
2018-Aug-12 13:29N 47°18' W 122°25'0 0.0
2018-Aug-12 12:58N 47°18' W 122°25'0 0.0
2018-Aug-12 11:47N 47°18' W 122°25'0 0.0
2018-Aug-12 10:16N 47°18' W 122°25'0 0.0
2018-Aug-12 09:50N 47°18' W 122°25'0 0.0
2018-Aug-12 09:23N 47°18' W 122°25'0 0.1
2018-Aug-12 08:55N 47°18' W 122°25'0 0.1
2018-Aug-12 08:30N 47°18' W 122°25'0 0.0
2018-Aug-12 05:43N 47°18' W 122°25'0 0.0
2018-Aug-11 19:25N 47°18' W 122°25'0 0.0
2018-Aug-11 18:35N 47°18' W 122°25'0 0.0
2018-Aug-11 18:24N 47°18' W 122°25'0 0.0
2018-Aug-11 17:58N 47°18' W 122°25'0 0.0
2018-Aug-11 17:28N 47°18' W 122°25'0 0.0
2018-Aug-11 17:00N 47°18' W 122°25'0 0.0
2018-Aug-11 13:26N 47°18' W 122°25'0 0.4
2018-Aug-11 12:43N 47°17' W 122°25'1 2.7
2018-Aug-11 12:30N 47°17' W 122°25'1 2.8
2018-Aug-11 12:00N 47°16' W 122°23'2 3.2
2018-Aug-11 11:30N 47°17' W 122°25'1 2.4
2018-Aug-11 11:00N 47°16' W 122°24'1 1.4
2018-Aug-11 10:30N 47°16' W 122°23'0 0.0
2018-Aug-11 10:00N 47°16' W 122°23'0 0.6
2018-Aug-11 09:30N 47°16' W 122°23'2 4.3
2018-Aug-11 09:00N 47°18' W 122°25'0 0.0
2018-Aug-11 08:30N 47°18' W 122°25'0 0.0
2018-Aug-11 08:00N 47°18' W 122°25'0 0.0
2018-Aug-11 07:30N 47°18' W 122°25'0 0.0
2018-Aug-11 06:59N 47°18' W 122°25'0 0.0
2018-Aug-11 06:30N 47°18' W 122°25'0 0.0
2018-Aug-11 06:00N 47°18' W 122°25'0 0.0
2018-Aug-11 05:29N 47°18' W 122°25'0 0.0
2018-Aug-11 05:00N 47°18' W 122°25'0 0.0
2018-Aug-11 04:30N 47°18' W 122°25'0 0.0
2018-Aug-11 03:58N 47°18' W 122°25'1 2.9
2018-Aug-11 03:30N 47°18' W 122°27'4 7.8
2018-Aug-11 03:00N 47°22' W 122°25'4 7.6
2018-Aug-11 02:30N 47°25' W 122°23'5 9.3
2018-Aug-11 02:00N 47°30' W 122°24'4 8.7
2018-Aug-11 01:30N 47°34' W 122°26'4 7.8
2018-Aug-11 01:00N 47°36' W 122°21'1 1.9
2018-Aug-11 00:30N 47°35' W 122°21'0 0.9
2018-Aug-11 00:01N 47°35' W 122°21'1 2.5
2018-Aug-10 23:30N 47°37' W 122°21'1 1.1
2018-Aug-10 23:00N 47°36' W 122°21'2 3.4
2018-Aug-10 22:30N 47°34' W 122°21'0 0.0
2018-Aug-10 22:00N 47°34' W 122°21'0 0.0
2018-Aug-10 21:29N 47°34' W 122°21'0 0.0
2018-Aug-10 21:00N 47°34' W 122°21'0 0.0
2018-Aug-10 20:30N 47°34' W 122°21'0 0.0
2018-Aug-10 20:00N 47°34' W 122°21'0 0.0
2018-Aug-10 19:29N 47°34' W 122°21'0 0.0
2018-Aug-10 19:00N 47°34' W 122°21'0 0.0
2018-Aug-10 18:30N 47°34' W 122°21'0 0.0
2018-Aug-10 18:00N 47°34' W 122°21'0 0.0
2018-Aug-10 17:30N 47°34' W 122°21'0 0.0
2018-Aug-10 16:59N 47°34' W 122°21'0 0.0
2018-Aug-10 16:30N 47°34' W 122°21'0 0.0
2018-Aug-10 16:00N 47°34' W 122°21'0 0.0
2018-Aug-10 15:30N 47°34' W 122°21'0 0.0
2018-Aug-10 15:00N 47°34' W 122°21'0 0.0
2018-Aug-10 14:30N 47°34' W 122°21'0 0.0
2018-Aug-10 14:00N 47°34' W 122°21'0 0.0
2018-Aug-10 13:30N 47°34' W 122°21'0 0.0
2018-Aug-10 13:00N 47°34' W 122°21'0 0.0
2018-Aug-10 12:29N 47°34' W 122°21'0 0.0
2018-Aug-10 11:56N 47°34' W 122°21'0 0.0
2018-Aug-10 11:30N 47°34' W 122°21'0 0.0
2018-Aug-10 11:00N 47°34' W 122°21'0 0.0
2018-Aug-10 10:30N 47°34' W 122°21'0 0.0
2018-Aug-10 10:00N 47°34' W 122°21'0 0.0
2018-Aug-10 09:29N 47°34' W 122°21'0 0.0
2018-Aug-10 09:00N 47°34' W 122°21'0 0.0
2018-Aug-10 08:30N 47°34' W 122°21'0 0.0
2018-Aug-10 08:00N 47°34' W 122°21'0 0.0
2018-Aug-10 07:30N 47°34' W 122°21'0 0.0
2018-Aug-10 07:00N 47°34' W 122°21'0 0.0
2018-Aug-10 06:30N 47°34' W 122°21'0 0.0
2018-Aug-10 06:00N 47°34' W 122°21'0 0.0
2018-Aug-10 05:30N 47°34' W 122°21'0 0.0
2018-Aug-10 05:00N 47°34' W 122°21'0 0.0
2018-Aug-10 04:30N 47°34' W 122°21'0 0.0
2018-Aug-10 04:00N 47°34' W 122°21'0 0.0
2018-Aug-10 03:30N 47°34' W 122°21'0 0.0
2018-Aug-10 03:00N 47°34' W 122°21'0 0.0
2018-Aug-10 02:30N 47°34' W 122°21'0 0.1
2018-Aug-10 02:00N 47°35' W 122°21'1 1.1
2018-Aug-10 01:30N 47°35' W 122°21'1 1.2
2018-Aug-10 01:00N 47°34' W 122°21'0 0.0
2018-Aug-10 00:30N 47°34' W 122°21'0 0.0
2018-Aug-10 00:00N 47°34' W 122°21'0 0.0
2018-Aug-09 23:30N 47°34' W 122°21'0 0.0
2018-Aug-09 23:00N 47°34' W 122°21'0 0.0
2018-Aug-09 22:30N 47°34' W 122°21'0 0.0
2018-Aug-09 22:00N 47°34' W 122°21'0 0.1
2018-Aug-09 21:30N 47°34' W 122°21'0 0.0
2018-Aug-09 21:00N 47°34' W 122°21'0 0.0
2018-Aug-09 20:30N 47°34' W 122°21'0 0.0
2018-Aug-09 20:00N 47°34' W 122°21'0 0.0
2018-Aug-09 19:30N 47°34' W 122°21'0 0.2
2018-Aug-09 19:00N 47°34' W 122°21'0 0.1
2018-Aug-09 18:30N 47°34' W 122°21'1 1.5
2018-Aug-09 18:00N 47°35' W 122°21'0 0.1
2018-Aug-09 17:29N 47°35' W 122°21'1 1.7
2018-Aug-09 17:00N 47°34' W 122°21'1 1.2
2018-Aug-09 16:29N 47°35' W 122°21'3 6.8
2018-Aug-09 16:00N 47°35' W 122°25'4 7.9
2018-Aug-09 15:31N 47°31' W 122°25'510.0
2018-Aug-09 15:00N 47°26' W 122°23'4 8.4
2018-Aug-09 14:30N 47°22' W 122°22'5 9.7
2018-Aug-09 14:00N 47°18' W 122°27'3 6.8
2018-Aug-09 13:30N 47°16' W 122°23'0 0.9
2018-Aug-09 12:57N 47°16' W 122°24'2 4.7
2018-Aug-09 12:30N 47°18' W 122°26'0 0.3
2018-Aug-09 12:00N 47°18' W 122°26'1 0.5
2018-Aug-09 10:35N 47°18' W 122°25'0 0.2
2018-Aug-09 10:21N 47°18' W 122°25'0 0.0
2018-Aug-09 06:32N 47°18' W 122°25'0 0.0
2018-Aug-08 22:17N 47°18' W 122°25'2 6.0
2018-Aug-08 21:57N 47°16' W 122°24'0 0.9
2018-Aug-08 21:30N 47°16' W 122°23'1 2.4
2018-Aug-08 21:00N 47°16' W 122°24'2 3.9
2018-Aug-08 20:30N 47°18' W 122°27'1 1.9
2018-Aug-08 19:58N 47°18' W 122°25'0 0.0
2018-Aug-08 15:23N 47°18' W 122°25'2 4.4
2018-Aug-08 15:00N 47°16' W 122°24'0 0.1
2018-Aug-08 14:21N 47°16' W 122°24'1 3.4
2018-Aug-08 14:00N 47°17' W 122°25'1 1.8
2018-Aug-08 13:23N 47°17' W 122°23'0 0.0
2018-Aug-08 13:00N 47°17' W 122°23'1 2.9
2018-Aug-08 12:30N 47°17' W 122°25'0 0.2
2018-Aug-08 10:55N 47°18' W 122°25'0 0.0
2018-Aug-08 10:26N 47°18' W 122°25'0 0.0
2018-Aug-08 05:49N 47°18' W 122°25'0 0.0
2018-Aug-08 00:36N 47°18' W 122°25'0 0.0
2018-Aug-08 00:25N 47°18' W 122°25'0 0.0
2018-Aug-07 23:34N 47°18' W 122°25'1 0.5
2018-Aug-07 22:15N 47°17' W 122°25'0 0.2
2018-Aug-07 20:23N 47°17' W 122°24'2 6.2
2018-Aug-07 20:00N 47°18' W 122°27'4 8.3
2018-Aug-07 19:30N 47°22' W 122°24'4 8.7
2018-Aug-07 19:00N 47°26' W 122°23'611.0
2018-Aug-07 18:30N 47°31' W 122°25'5 9.4
2018-Aug-07 18:00N 47°36' W 122°23'2 4.9
2018-Aug-07 17:30N 47°34' W 122°21'0 0.0
2018-Aug-07 17:00N 47°34' W 122°21'0 0.0
2018-Aug-07 16:30N 47°34' W 122°21'0 0.0
2018-Aug-07 16:00N 47°34' W 122°21'0 0.0
2018-Aug-07 15:30N 47°34' W 122°21'0 0.0
2018-Aug-07 15:00N 47°34' W 122°21'0 0.0
2018-Aug-07 14:30N 47°34' W 122°21'0 0.0
2018-Aug-07 14:00N 47°34' W 122°21'0 0.0
2018-Aug-07 13:30N 47°34' W 122°21'0 0.0
2018-Aug-07 13:00N 47°34' W 122°21'0 0.0
2018-Aug-07 12:30N 47°34' W 122°21'0 0.0
2018-Aug-07 12:00N 47°34' W 122°21'0 0.0
2018-Aug-07 11:30N 47°34' W 122°21'0 0.0
2018-Aug-07 11:00N 47°34' W 122°21'0 0.0
2018-Aug-07 10:30N 47°34' W 122°21'0 0.0
2018-Aug-07 09:56N 47°34' W 122°21'0 0.0
2018-Aug-07 09:30N 47°34' W 122°21'0 0.0
2018-Aug-07 09:00N 47°34' W 122°21'0 0.0
2018-Aug-07 08:30N 47°34' W 122°21'0 0.0
2018-Aug-07 08:00N 47°34' W 122°21'0 0.0
2018-Aug-07 07:30N 47°34' W 122°21'0 0.0
2018-Aug-07 07:00N 47°34' W 122°21'0 0.0
2018-Aug-07 06:30N 47°34' W 122°21'0 0.0
2018-Aug-07 06:00N 47°34' W 122°21'0 0.0
2018-Aug-07 05:30N 47°34' W 122°21'0 0.0
2018-Aug-07 05:00N 47°34' W 122°21'0 0.0
2018-Aug-07 04:30N 47°34' W 122°21'0 0.0
2018-Aug-07 04:00N 47°34' W 122°21'0 0.0
2018-Aug-07 03:30N 47°34' W 122°21'0 0.0
2018-Aug-07 03:00N 47°34' W 122°21'0 0.0
2018-Aug-07 02:30N 47°34' W 122°21'0 0.0
2018-Aug-07 02:00N 47°34' W 122°21'0 0.0
2018-Aug-07 01:30N 47°34' W 122°21'0 0.0
2018-Aug-07 01:00N 47°34' W 122°21'0 0.0
2018-Aug-07 00:30N 47°34' W 122°21'0 0.0
2018-Aug-07 00:00N 47°34' W 122°21'0 0.0
2018-Aug-06 23:30N 47°34' W 122°21'0 0.1
2018-Aug-06 23:00N 47°34' W 122°21'0 0.0
2018-Aug-06 22:30N 47°34' W 122°21'0 0.0
2018-Aug-06 22:00N 47°34' W 122°21'0 0.0
2018-Aug-06 21:23N 47°34' W 122°21'0 0.0
2018-Aug-06 20:44N 47°34' W 122°21'0 0.0
2018-Aug-06 20:29N 47°34' W 122°21'0 0.0
2018-Aug-06 19:53N 47°34' W 122°21'0 0.0
2018-Aug-06 19:25N 47°34' W 122°21'0 0.0
2018-Aug-06 18:59N 47°34' W 122°21'0 0.2
2018-Aug-06 18:30N 47°34' W 122°21'0 0.0
2018-Aug-06 18:00N 47°34' W 122°21'0 0.0
2018-Aug-06 17:30N 47°34' W 122°21'0 0.0
2018-Aug-06 17:00N 47°34' W 122°21'0 0.0
2018-Aug-06 16:30N 47°34' W 122°21'0 0.0
2018-Aug-06 16:00N 47°34' W 122°21'1 2.0
2018-Aug-06 15:30N 47°35' W 122°21'0 0.0
2018-Aug-06 15:00N 47°35' W 122°21'0 0.2
2018-Aug-06 14:30N 47°36' W 122°21'1 1.4
2018-Aug-06 14:00N 47°36' W 122°21'2 3.1
2018-Aug-06 13:30N 47°34' W 122°21'0 0.1
2018-Aug-06 13:00N 47°34' W 122°21'0 0.0
2018-Aug-06 12:30N 47°34' W 122°21'0 0.0
2018-Aug-06 12:00N 47°34' W 122°21'0 0.0
2018-Aug-06 11:29N 47°34' W 122°21'0 0.0
2018-Aug-06 10:59N 47°34' W 122°21'0 0.0
2018-Aug-06 10:30N 47°34' W 122°21'0 0.0
2018-Aug-06 10:00N 47°34' W 122°21'0 0.0
2018-Aug-06 09:30N 47°34' W 122°21'0 0.0
2018-Aug-06 09:00N 47°34' W 122°21'0 0.0
2018-Aug-06 08:30N 47°34' W 122°21'  
Track history (hours):
 
Tides and Currents Weather Stations Pressure Air Temp Water Temp Dewpoint Dewpoint Depression Visibility Wind Speed Wind Dir Waves Ship Positions

Michelle Sloan

Owner: Harley Marine Services, Inc., Seattle, WA. More information available from US FCC via Universal Licensing System and Coast Guard Vessel Documentation Center.

Last reported at 2018-Aug-16 08:29 UTC. Time now 2018-Aug-16 08:44 UTC.
Position N 47°34' W 122°21'.

Length 24 m; draft 4 m.

Type: Tug. MMSI: 367661930.

Date/timePositionNaut miles runAvg speedWind from/ knotsBaromVisibWave heightAir tempDewpointWater temp
2018-Aug-16 08:29N 47°34' W 122°21'0 0.0
2018-Aug-16 07:59N 47°34' W 122°21'0 0.0
2018-Aug-16 07:29N 47°34' W 122°21'0 0.0
2018-Aug-16 07:00N 47°34' W 122°21'3 6.0
2018-Aug-16 06:31N 47°37' W 122°22'0 0.4
2018-Aug-16 06:00N 47°37' W 122°22'1 2.7
2018-Aug-16 05:30N 47°36' W 122°21'2 2.9
2018-Aug-16 05:00N 47°35' W 122°21'0 0.6
2018-Aug-16 04:23N 47°34' W 122°21'0 0.0
2018-Aug-16 03:59N 47°34' W 122°21'0 0.0
2018-Aug-16 03:29N 47°34' W 122°21'0 0.0
2018-Aug-16 02:59N 47°34' W 122°21'0 0.0
2018-Aug-16 02:29N 47°34' W 122°21'0 0.0
2018-Aug-16 01:59N 47°34' W 122°21'0 0.0
2018-Aug-16 01:29N 47°34' W 122°21'0 0.0
2018-Aug-16 00:59N 47°34' W 122°21'0 0.0
2018-Aug-16 00:26N 47°34' W 122°21'0 0.0
2018-Aug-15 23:59N 47°34' W 122°21'0 0.0
2018-Aug-15 23:29N 47°34' W 122°21'0 0.0
2018-Aug-15 22:59N 47°34' W 122°21'0 0.0
2018-Aug-15 22:29N 47°34' W 122°21'0 0.0
2018-Aug-15 21:59N 47°34' W 122°21'0 0.0
2018-Aug-15 21:29N 47°34' W 122°21'0 0.0
2018-Aug-15 20:59N 47°34' W 122°21'0 0.0
2018-Aug-15 20:29N 47°34' W 122°21'0 0.0
2018-Aug-15 19:59N 47°34' W 122°21'0 0.0
2018-Aug-15 19:30N 47°34' W 122°21'0 0.0
2018-Aug-15 19:00N 47°34' W 122°21'0 0.0
2018-Aug-15 18:30N 47°34' W 122°21'0 0.0
2018-Aug-15 18:00N 47°34' W 122°21'0 0.0
2018-Aug-15 17:30N 47°34' W 122°21'0 0.0
2018-Aug-15 17:00N 47°34' W 122°21'0 0.0
2018-Aug-15 16:30N 47°34' W 122°21'0 0.0
2018-Aug-15 16:00N 47°34' W 122°21'0 0.0
2018-Aug-15 15:30N 47°34' W 122°21'0 0.0
2018-Aug-15 15:00N 47°34' W 122°21'0 0.0
2018-Aug-15 14:30N 47°34' W 122°21'0 0.0
2018-Aug-15 14:00N 47°34' W 122°21'0 0.0
2018-Aug-15 13:30N 47°34' W 122°21'0 0.0
2018-Aug-15 13:00N 47°34' W 122°21'0 0.0
2018-Aug-15 12:30N 47°34' W 122°21'0 0.0
2018-Aug-15 12:00N 47°34' W 122°21'0 0.0
2018-Aug-15 11:30N 47°34' W 122°21'0 0.0
2018-Aug-15 11:00N 47°34' W 122°21'0 0.0
2018-Aug-15 10:30N 47°34' W 122°21'0 0.0
2018-Aug-15 10:00N 47°34' W 122°21'0 0.0
2018-Aug-15 09:30N 47°34' W 122°21'0 0.0
2018-Aug-15 09:00N 47°34' W 122°21'0 0.0
2018-Aug-15 08:30N 47°34' W 122°21'0 0.0
2018-Aug-15 08:00N 47°34' W 122°21'0 0.0
2018-Aug-15 07:30N 47°34' W 122°21'0 0.0
2018-Aug-15 07:00N 47°34' W 122°21'0 0.0
2018-Aug-15 06:30N 47°34' W 122°21'0 0.0
2018-Aug-15 06:00N 47°34' W 122°21'0 0.0
2018-Aug-15 05:30N 47°34' W 122°21'0 0.0
2018-Aug-15 05:00N 47°34' W 122°21'0 0.0
2018-Aug-15 04:29N 47°34' W 122°21'0 0.0
2018-Aug-15 04:00N 47°34' W 122°21'0 0.0
2018-Aug-15 03:30N 47°34' W 122°21'0 0.0
2018-Aug-15 03:00N 47°34' W 122°21'0 0.0
2018-Aug-15 02:30N 47°34' W 122°21'0 0.0
2018-Aug-15 02:00N 47°34' W 122°21'0 0.0
2018-Aug-15 01:30N 47°34' W 122°21'0 0.0
2018-Aug-15 01:00N 47°34' W 122°21'0 0.0
2018-Aug-15 00:30N 47°34' W 122°21'0 0.8
2018-Aug-15 00:00N 47°35' W 122°21'1 1.7
2018-Aug-14 23:30N 47°36' W 122°21'0 0.9
2018-Aug-14 23:00N 47°35' W 122°21'0 0.8
2018-Aug-14 22:31N 47°35' W 122°21'0 0.8
2018-Aug-14 22:00N 47°34' W 122°21'0 0.0
2018-Aug-14 21:30N 47°34' W 122°21'0 0.0
2018-Aug-14 21:00N 47°34' W 122°21'0 0.0
2018-Aug-14 20:30N 47°34' W 122°21'0 0.0
2018-Aug-14 20:00N 47°34' W 122°21'0 0.0
2018-Aug-14 19:30N 47°34' W 122°21'0 0.0
2018-Aug-14 19:00N 47°34' W 122°21'0 0.0
2018-Aug-14 18:30N 47°34' W 122°21'0 0.0
2018-Aug-14 18:00N 47°34' W 122°21'0 0.0
2018-Aug-14 17:30N 47°34' W 122°21'0 0.0
2018-Aug-14 16:59N 47°34' W 122°21'0 0.0
2018-Aug-14 16:30N 47°34' W 122°21'0 0.0
2018-Aug-14 16:00N 47°34' W 122°21'0 0.0
2018-Aug-14 15:30N 47°34' W 122°21'0 0.0
2018-Aug-14 15:00N 47°34' W 122°21'0 0.0
2018-Aug-14 14:29N 47°34' W 122°21'0 0.0
2018-Aug-14 14:00N 47°34' W 122°21'0 0.0
2018-Aug-14 13:24N 47°34' W 122°21'0 0.0
2018-Aug-14 12:57N 47°34' W 122°21'0 0.0
2018-Aug-14 12:29N 47°34' W 122°21'0 0.0
2018-Aug-14 12:00N 47°34' W 122°21'0 0.0
2018-Aug-14 11:29N 47°34' W 122°21'0 0.0
2018-Aug-14 11:00N 47°34' W 122°21'0 0.0
2018-Aug-14 10:30N 47°34' W 122°21'0 0.0
2018-Aug-14 10:00N 47°34' W 122°21'0 0.0
2018-Aug-14 09:30N 47°34' W 122°21'0 0.0
2018-Aug-14 09:00N 47°34' W 122°21'0 0.0
2018-Aug-14 08:30N 47°34' W 122°21'0 0.0
2018-Aug-14 08:00N 47°34' W 122°21'0 0.0
2018-Aug-14 07:27N 47°34' W 122°21'0 0.0
2018-Aug-14 07:00N 47°34' W 122°21'0 0.0
2018-Aug-14 06:29N 47°34' W 122°21'0 0.0
2018-Aug-14 06:00N 47°34' W 122°21'0 0.0
2018-Aug-14 05:30N 47°34' W 122°21'0 0.0
2018-Aug-14 04:59N 47°34' W 122°21'0 0.0
2018-Aug-14 04:30N 47°34' W 122°21'0 0.0
2018-Aug-14 03:58N 47°34' W 122°21'0 0.0
2018-Aug-14 03:30N 47°34' W 122°21'0 0.0
2018-Aug-14 03:00N 47°34' W 122°21'1 1.0
2018-Aug-14 02:30N 47°35' W 122°21'0 0.2
2018-Aug-14 02:00N 47°35' W 122°21'0 0.1
2018-Aug-14 01:30N 47°35' W 122°21'0 0.1
2018-Aug-14 01:00N 47°35' W 122°21'0 0.3
2018-Aug-14 00:30N 47°35' W 122°21'0 0.0
2018-Aug-14 00:00N 47°35' W 122°21'0 0.1
2018-Aug-13 23:31N 47°35' W 122°21'0 0.5
2018-Aug-13 23:00N 47°35' W 122°21'0 0.4
2018-Aug-13 22:30N 47°34' W 122°21'0 0.0
2018-Aug-13 22:00N 47°34' W 122°21'0 0.0
2018-Aug-13 21:30N 47°34' W 122°21'0 0.0
2018-Aug-13 21:00N 47°34' W 122°21'0 0.0
2018-Aug-13 20:30N 47°34' W 122°21'0 0.0
2018-Aug-13 19:59N 47°34' W 122°21'0 0.0
2018-Aug-13 19:29N 47°34' W 122°21'0 0.0
2018-Aug-13 19:00N 47°34' W 122°21'0 0.0
2018-Aug-13 18:30N 47°34' W 122°21'0 0.0
2018-Aug-13 18:00N 47°34' W 122°21'0 0.0
2018-Aug-13 17:30N 47°34' W 122°21'0 0.0
2018-Aug-13 17:00N 47°34' W 122°21'0 0.0
2018-Aug-13 16:30N 47°34' W 122°21'0 0.0
2018-Aug-13 16:00N 47°34' W 122°21'0 0.0
2018-Aug-13 15:30N 47°34' W 122°21'0 0.0
2018-Aug-13 15:00N 47°34' W 122°21'0 0.0
2018-Aug-13 14:30N 47°34' W 122°21'0 0.0
2018-Aug-13 14:00N 47°34' W 122°21'0 0.0
2018-Aug-13 13:30N 47°34' W 122°21'0 0.0
2018-Aug-13 13:00N 47°34' W 122°21'0 0.0
2018-Aug-13 12:30N 47°34' W 122°21'0 0.0
2018-Aug-13 12:00N 47°34' W 122°21'0 0.5
2018-Aug-13 11:30N 47°35' W 122°21'0 0.5
2018-Aug-13 11:00N 47°35' W 122°21'2 3.5
2018-Aug-13 10:31N 47°37' W 122°22'2 3.4
2018-Aug-13 10:00N 47°35' W 122°21'0 0.5
2018-Aug-13 09:30N 47°35' W 122°21'0 0.6
2018-Aug-13 09:00N 47°34' W 122°21'0 0.0
2018-Aug-13 08:30N 47°34' W 122°21'0 0.0
2018-Aug-13 08:00N 47°34' W 122°21'0 0.0
2018-Aug-13 07:30N 47°34' W 122°21'0 0.0
2018-Aug-13 07:00N 47°34' W 122°21'0 0.0
2018-Aug-13 06:30N 47°34' W 122°21'0 0.0
2018-Aug-13 06:00N 47°34' W 122°21'0 0.0
2018-Aug-13 05:30N 47°34' W 122°21'0 0.0
2018-Aug-13 05:00N 47°34' W 122°21'0 0.0
2018-Aug-13 04:30N 47°34' W 122°21'0 0.0
2018-Aug-13 04:00N 47°34' W 122°21'0 0.0
2018-Aug-13 03:30N 47°34' W 122°21'0 0.0
2018-Aug-13 03:00N 47°34' W 122°21'0 0.0
2018-Aug-13 02:30N 47°34' W 122°21'0 0.0
2018-Aug-13 02:00N 47°34' W 122°21'0 0.0
2018-Aug-13 01:30N 47°34' W 122°21'0 0.0
2018-Aug-13 01:00N 47°34' W 122°21'0 0.0
2018-Aug-13 00:30N 47°34' W 122°21'0 0.0
2018-Aug-13 00:00N 47°34' W 122°21'0 0.0
2018-Aug-12 23:30N 47°34' W 122°21'0 0.0
2018-Aug-12 23:00N 47°34' W 122°21'0 0.0
2018-Aug-12 22:30N 47°34' W 122°21'0 0.0
2018-Aug-12 22:00N 47°34' W 122°21'0 0.0
2018-Aug-12 21:30N 47°34' W 122°21'0 0.0
2018-Aug-12 21:00N 47°34' W 122°21'0 0.0
2018-Aug-12 20:30N 47°34' W 122°21'0 0.0
2018-Aug-12 20:00N 47°34' W 122°21'0 0.0
2018-Aug-12 19:30N 47°34' W 122°21'0 0.0
2018-Aug-12 19:00N 47°34' W 122°21'0 0.0
2018-Aug-12 18:30N 47°34' W 122°21'0 0.0
2018-Aug-12 18:00N 47°34' W 122°21'0 0.0
2018-Aug-12 17:30N 47°34' W 122°21'1 2.2
2018-Aug-12 17:01N 47°35' W 122°21'4 8.1
2018-Aug-12 16:30N 47°34' W 122°26'611.3
2018-Aug-12 16:00N 47°29' W 122°30'510.8
2018-Aug-12 15:30N 47°24' W 122°32'5 9.2
2018-Aug-12 15:00N 47°19' W 122°30'4 6.5
2018-Aug-12 14:26N 47°18' W 122°25'0 0.0
2018-Aug-12 14:00N 47°18' W 122°25'0 0.1
2018-Aug-12 13:29N 47°18' W 122°25'0 0.0
2018-Aug-12 12:58N 47°18' W 122°25'0 0.0
2018-Aug-12 11:47N 47°18' W 122°25'0 0.0
2018-Aug-12 10:16N 47°18' W 122°25'0 0.0
2018-Aug-12 09:50N 47°18' W 122°25'0 0.0
2018-Aug-12 09:23N 47°18' W 122°25'0 0.1
2018-Aug-12 08:55N 47°18' W 122°25'0 0.1
2018-Aug-12 08:30N 47°18' W 122°25'0 0.0
2018-Aug-12 05:43N 47°18' W 122°25'0 0.0
2018-Aug-11 19:25N 47°18' W 122°25'0 0.0
2018-Aug-11 18:35N 47°18' W 122°25'0 0.0
2018-Aug-11 18:24N 47°18' W 122°25'0 0.0
2018-Aug-11 17:58N 47°18' W 122°25'0 0.0
2018-Aug-11 17:28N 47°18' W 122°25'0 0.0
2018-Aug-11 17:00N 47°18' W 122°25'0 0.0
2018-Aug-11 13:26N 47°18' W 122°25'0 0.4
2018-Aug-11 12:43N 47°17' W 122°25'1 2.7
2018-Aug-11 12:30N 47°17' W 122°25'1 2.8
2018-Aug-11 12:00N 47°16' W 122°23'2 3.2
2018-Aug-11 11:30N 47°17' W 122°25'1 2.4
2018-Aug-11 11:00N 47°16' W 122°24'1 1.4
2018-Aug-11 10:30N 47°16' W 122°23'0 0.0
2018-Aug-11 10:00N 47°16' W 122°23'0 0.6
2018-Aug-11 09:30N 47°16' W 122°23'2 4.3
2018-Aug-11 09:00N 47°18' W 122°25'0 0.0
2018-Aug-11 08:30N 47°18' W 122°25'0 0.0
2018-Aug-11 08:00N 47°18' W 122°25'0 0.0
2018-Aug-11 07:30N 47°18' W 122°25'0 0.0
2018-Aug-11 06:59N 47°18' W 122°25'0 0.0
2018-Aug-11 06:30N 47°18' W 122°25'0 0.0
2018-Aug-11 06:00N 47°18' W 122°25'0 0.0
2018-Aug-11 05:29N 47°18' W 122°25'0 0.0
2018-Aug-11 05:00N 47°18' W 122°25'0 0.0
2018-Aug-11 04:30N 47°18' W 122°25'0 0.0
2018-Aug-11 03:58N 47°18' W 122°25'1 2.9
2018-Aug-11 03:30N 47°18' W 122°27'4 7.8
2018-Aug-11 03:00N 47°22' W 122°25'4 7.6
2018-Aug-11 02:30N 47°25' W 122°23'5 9.3
2018-Aug-11 02:00N 47°30' W 122°24'4 8.7
2018-Aug-11 01:30N 47°34' W 122°26'4 7.8
2018-Aug-11 01:00N 47°36' W 122°21'1 1.9
2018-Aug-11 00:30N 47°35' W 122°21'0 0.9
2018-Aug-11 00:01N 47°35' W 122°21'1 2.5
2018-Aug-10 23:30N 47°37' W 122°21'1 1.1
2018-Aug-10 23:00N 47°36' W 122°21'2 3.4
2018-Aug-10 22:30N 47°34' W 122°21'0 0.0
2018-Aug-10 22:00N 47°34' W 122°21'0 0.0
2018-Aug-10 21:29N 47°34' W 122°21'0 0.0
2018-Aug-10 21:00N 47°34' W 122°21'0 0.0
2018-Aug-10 20:30N 47°34' W 122°21'0 0.0
2018-Aug-10 20:00N 47°34' W 122°21'0 0.0
2018-Aug-10 19:29N 47°34' W 122°21'0 0.0
2018-Aug-10 19:00N 47°34' W 122°21'0 0.0
2018-Aug-10 18:30N 47°34' W 122°21'0 0.0
2018-Aug-10 18:00N 47°34' W 122°21'0 0.0
2018-Aug-10 17:30N 47°34' W 122°21'0 0.0
2018-Aug-10 16:59N 47°34' W 122°21'0 0.0
2018-Aug-10 16:30N 47°34' W 122°21'0 0.0
2018-Aug-10 16:00N 47°34' W 122°21'0 0.0
2018-Aug-10 15:30N 47°34' W 122°21'0 0.0
2018-Aug-10 15:00N 47°34' W 122°21'0 0.0
2018-Aug-10 14:30N 47°34' W 122°21'0 0.0
2018-Aug-10 14:00N 47°34' W 122°21'0 0.0
2018-Aug-10 13:30N 47°34' W 122°21'0 0.0
2018-Aug-10 13:00N 47°34' W 122°21'0 0.0
2018-Aug-10 12:29N 47°34' W 122°21'0 0.0
2018-Aug-10 11:56N 47°34' W 122°21'0 0.0
2018-Aug-10 11:30N 47°34' W 122°21'0 0.0
2018-Aug-10 11:00N 47°34' W 122°21'0 0.0
2018-Aug-10 10:30N 47°34' W 122°21'0 0.0
2018-Aug-10 10:00N 47°34' W 122°21'0 0.0
2018-Aug-10 09:29N 47°34' W 122°21'0 0.0
2018-Aug-10 09:00N 47°34' W 122°21'0 0.0
2018-Aug-10 08:30N 47°34' W 122°21'0 0.0
2018-Aug-10 08:00N 47°34' W 122°21'0 0.0
2018-Aug-10 07:30N 47°34' W 122°21'0 0.0
2018-Aug-10 07:00N 47°34' W 122°21'0 0.0
2018-Aug-10 06:30N 47°34' W 122°21'0 0.0
2018-Aug-10 06:00N 47°34' W 122°21'0 0.0
2018-Aug-10 05:30N 47°34' W 122°21'0 0.0
2018-Aug-10 05:00N 47°34' W 122°21'0 0.0
2018-Aug-10 04:30N 47°34' W 122°21'0 0.0
2018-Aug-10 04:00N 47°34' W 122°21'0 0.0
2018-Aug-10 03:30N 47°34' W 122°21'0 0.0
2018-Aug-10 03:00N 47°34' W 122°21'0 0.0
2018-Aug-10 02:30N 47°34' W 122°21'0 0.1
2018-Aug-10 02:00N 47°35' W 122°21'1 1.1
2018-Aug-10 01:30N 47°35' W 122°21'1 1.2
2018-Aug-10 01:00N 47°34' W 122°21'0 0.0
2018-Aug-10 00:30N 47°34' W 122°21'0 0.0
2018-Aug-10 00:00N 47°34' W 122°21'0 0.0
2018-Aug-09 23:30N 47°34' W 122°21'0 0.0
2018-Aug-09 23:00N 47°34' W 122°21'0 0.0
2018-Aug-09 22:30N 47°34' W 122°21'0 0.0
2018-Aug-09 22:00N 47°34' W 122°21'0 0.1
2018-Aug-09 21:30N 47°34' W 122°21'0 0.0
2018-Aug-09 21:00N 47°34' W 122°21'0 0.0
2018-Aug-09 20:30N 47°34' W 122°21'0 0.0
2018-Aug-09 20:00N 47°34' W 122°21'0 0.0
2018-Aug-09 19:30N 47°34' W 122°21'0 0.2
2018-Aug-09 19:00N 47°34' W 122°21'0 0.1
2018-Aug-09 18:30N 47°34' W 122°21'1 1.5
2018-Aug-09 18:00N 47°35' W 122°21'0 0.1
2018-Aug-09 17:29N 47°35' W 122°21'1 1.7
2018-Aug-09 17:00N 47°34' W 122°21'1 1.2
2018-Aug-09 16:29N 47°35' W 122°21'3 6.8
2018-Aug-09 16:00N 47°35' W 122°25'4 7.9
2018-Aug-09 15:31N 47°31' W 122°25'510.0
2018-Aug-09 15:00N 47°26' W 122°23'4 8.4
2018-Aug-09 14:30N 47°22' W 122°22'5 9.7
2018-Aug-09 14:00N 47°18' W 122°27'3 6.8
2018-Aug-09 13:30N 47°16' W 122°23'0 0.9
2018-Aug-09 12:57N 47°16' W 122°24'2 4.7
2018-Aug-09 12:30N 47°18' W 122°26'0 0.3
2018-Aug-09 12:00N 47°18' W 122°26'1 0.5
2018-Aug-09 10:35N 47°18' W 122°25'0 0.2
2018-Aug-09 10:21N 47°18' W 122°25'0 0.0
2018-Aug-09 06:32N 47°18' W 122°25'0 0.0
2018-Aug-08 22:17N 47°18' W 122°25'2 6.0
2018-Aug-08 21:57N 47°16' W 122°24'0 0.9
2018-Aug-08 21:30N 47°16' W 122°23'1 2.4
2018-Aug-08 21:00N 47°16' W 122°24'2 3.9
2018-Aug-08 20:30N 47°18' W 122°27'1 1.9
2018-Aug-08 19:58N 47°18' W 122°25'0 0.0
2018-Aug-08 15:23N 47°18' W 122°25'2 4.4
2018-Aug-08 15:00N 47°16' W 122°24'0 0.1
2018-Aug-08 14:21N 47°16' W 122°24'1 3.4
2018-Aug-08 14:00N 47°17' W 122°25'1 1.8
2018-Aug-08 13:23N 47°17' W 122°23'0 0.0
2018-Aug-08 13:00N 47°17' W 122°23'1 2.9
2018-Aug-08 12:30N 47°17' W 122°25'0 0.2
2018-Aug-08 10:55N 47°18' W 122°25'0 0.0
2018-Aug-08 10:26N 47°18' W 122°25'0 0.0
2018-Aug-08 05:49N 47°18' W 122°25'0 0.0
2018-Aug-08 00:36N 47°18' W 122°25'0 0.0
2018-Aug-08 00:25N 47°18' W 122°25'0 0.0
2018-Aug-07 23:34N 47°18' W 122°25'1 0.5
2018-Aug-07 22:15N 47°17' W 122°25'0 0.2
2018-Aug-07 20:23N 47°17' W 122°24'2 6.2
2018-Aug-07 20:00N 47°18' W 122°27'4 8.3
2018-Aug-07 19:30N 47°22' W 122°24'4 8.7
2018-Aug-07 19:00N 47°26' W 122°23'611.0
2018-Aug-07 18:30N 47°31' W 122°25'5 9.4
2018-Aug-07 18:00N 47°36' W 122°23'2 4.9
2018-Aug-07 17:30N 47°34' W 122°21'0 0.0
2018-Aug-07 17:00N 47°34' W 122°21'0 0.0
2018-Aug-07 16:30N 47°34' W 122°21'0 0.0
2018-Aug-07 16:00N 47°34' W 122°21'0 0.0
2018-Aug-07 15:30N 47°34' W 122°21'0 0.0
2018-Aug-07 15:00N 47°34' W 122°21'0 0.0
2018-Aug-07 14:30N 47°34' W 122°21'0 0.0
2018-Aug-07 14:00N 47°34' W 122°21'0 0.0
2018-Aug-07 13:30N 47°34' W 122°21'0 0.0
2018-Aug-07 13:00N 47°34' W 122°21'0 0.0
2018-Aug-07 12:30N 47°34' W 122°21'0 0.0
2018-Aug-07 12:00N 47°34' W 122°21'0 0.0
2018-Aug-07 11:30N 47°34' W 122°21'0 0.0
2018-Aug-07 11:00N 47°34' W 122°21'0 0.0
2018-Aug-07 10:30N 47°34' W 122°21'0 0.0
2018-Aug-07 09:56N 47°34' W 122°21'0 0.0
2018-Aug-07 09:30N 47°34' W 122°21'0 0.0
2018-Aug-07 09:00N 47°34' W 122°21'0 0.0
2018-Aug-07 08:30N 47°34' W 122°21'0 0.0
2018-Aug-07 08:00N 47°34' W 122°21'0 0.0
2018-Aug-07 07:30N 47°34' W 122°21'0 0.0
2018-Aug-07 07:00N 47°34' W 122°21'0 0.0
2018-Aug-07 06:30N 47°34' W 122°21'0 0.0
2018-Aug-07 06:00N 47°34' W 122°21'0 0.0
2018-Aug-07 05:30N 47°34' W 122°21'0 0.0
2018-Aug-07 05:00N 47°34' W 122°21'0 0.0
2018-Aug-07 04:30N 47°34' W 122°21'0 0.0
2018-Aug-07 04:00N 47°34' W 122°21'0 0.0
2018-Aug-07 03:30N 47°34' W 122°21'0 0.0
2018-Aug-07 03:00N 47°34' W 122°21'0 0.0
2018-Aug-07 02:30N 47°34' W 122°21'0 0.0
2018-Aug-07 02:00N 47°34' W 122°21'0 0.0
2018-Aug-07 01:30N 47°34' W 122°21'0 0.0
2018-Aug-07 01:00N 47°34' W 122°21'0 0.0
2018-Aug-07 00:30N 47°34' W 122°21'0 0.0
2018-Aug-07 00:00N 47°34' W 122°21'0 0.0
2018-Aug-06 23:30N 47°34' W 122°21'0 0.1
2018-Aug-06 23:00N 47°34' W 122°21'0 0.0
2018-Aug-06 22:30N 47°34' W 122°21'0 0.0
2018-Aug-06 22:00N 47°34' W 122°21'0 0.0
2018-Aug-06 21:23N 47°34' W 122°21'0 0.0
2018-Aug-06 20:44N 47°34' W 122°21'0 0.0
2018-Aug-06 20:29N 47°34' W 122°21'0 0.0
2018-Aug-06 19:53N 47°34' W 122°21'0 0.0
2018-Aug-06 19:25N 47°34' W 122°21'0 0.0
2018-Aug-06 18:59N 47°34' W 122°21'0 0.2
2018-Aug-06 18:30N 47°34' W 122°21'0 0.0
2018-Aug-06 18:00N 47°34' W 122°21'0 0.0
2018-Aug-06 17:30N 47°34' W 122°21'0 0.0
2018-Aug-06 17:00N 47°34' W 122°21'0 0.0
2018-Aug-06 16:30N 47°34' W 122°21'0 0.0
2018-Aug-06 16:00N 47°34' W 122°21'1 2.0
2018-Aug-06 15:30N 47°35' W 122°21'0 0.0
2018-Aug-06 15:00N 47°35' W 122°21'0 0.2
2018-Aug-06 14:30N 47°36' W 122°21'1 1.4
2018-Aug-06 14:00N 47°36' W 122°21'2 3.1
2018-Aug-06 13:30N 47°34' W 122°21'0 0.1
2018-Aug-06 13:00N 47°34' W 122°21'0 0.0
2018-Aug-06 12:30N 47°34' W 122°21'0 0.0
2018-Aug-06 12:00N 47°34' W 122°21'0 0.0
2018-Aug-06 11:29N 47°34' W 122°21'0 0.0
2018-Aug-06 10:59N 47°34' W 122°21'0 0.0
2018-Aug-06 10:30N 47°34' W 122°21'0 0.0
2018-Aug-06 10:00N 47°34' W 122°21'0 0.0
2018-Aug-06 09:30N 47°34' W 122°21'0 0.0
2018-Aug-06 09:00N 47°34' W 122°21'0 0.0
2018-Aug-06 08:30N 47°34' W 122°21'  

Dump ship's entire track history